sensor_id;sensor_type;location;lat;lon;timestamp;P1;durP1;ratioP1;P2;durP2;ratioP2
21488;SDS011;10906;45.194;5.684;2023-07-16T05:01:07;3.70;;;1.88;;
21488;SDS011;10906;45.194;5.684;2023-07-16T05:03:51;3.10;;;1.80;;
21488;SDS011;10906;45.194;5.684;2023-07-16T05:06:36;2.58;;;1.63;;
21488;SDS011;10906;45.194;5.684;2023-07-16T05:09:20;1.85;;;1.48;;
21488;SDS011;10906;45.194;5.684;2023-07-16T05:12:06;3.35;;;1.70;;
21488;SDS011;10906;45.194;5.684;2023-07-16T05:14:51;3.10;;;1.80;;
21488;SDS011;10906;45.194;5.684;2023-07-16T05:17:35;4.30;;;1.73;;
21488;SDS011;10906;45.194;5.684;2023-07-16T05:20:21;3.70;;;1.77;;
21488;SDS011;10906;45.194;5.684;2023-07-16T05:23:05;2.63;;;1.65;;
21488;SDS011;10906;45.194;5.684;2023-07-16T05:25:50;2.97;;;1.80;;
21488;SDS011;10906;45.194;5.684;2023-07-16T05:28:35;1.95;;;1.60;;
21488;SDS011;10906;45.194;5.684;2023-07-16T05:31:19;4.75;;;1.73;;
21488;SDS011;10906;45.194;5.684;2023-07-16T05:34:04;3.30;;;1.58;;
21488;SDS011;10906;45.194;5.684;2023-07-16T05:36:49;2.42;;;1.55;;
21488;SDS011;10906;45.194;5.684;2023-07-16T05:39:34;2.88;;;1.70;;
21488;SDS011;10906;45.194;5.684;2023-07-16T05:42:18;2.20;;;1.60;;
21488;SDS011;10906;45.194;5.684;2023-07-16T05:45:03;2.20;;;1.70;;
21488;SDS011;10906;45.194;5.684;2023-07-16T05:47:48;3.90;;;1.80;;
21488;SDS011;10906;45.194;5.684;2023-07-16T05:50:32;5.50;;;1.83;;
21488;SDS011;10906;45.194;5.684;2023-07-16T05:53:17;4.63;;;1.63;;
21488;SDS011;10906;45.194;5.684;2023-07-16T05:56:01;4.45;;;2.13;;
21488;SDS011;10906;45.194;5.684;2023-07-16T05:58:46;2.92;;;1.88;;
21488;SDS011;10906;45.194;5.684;2023-07-16T06:01:31;3.78;;;1.90;;
21488;SDS011;10906;45.194;5.684;2023-07-16T06:04:16;2.17;;;1.67;;
21488;SDS011;10906;45.194;5.684;2023-07-16T06:07:02;2.13;;;1.80;;
21488;SDS011;10906;45.194;5.684;2023-07-16T06:09:46;4.55;;;2.15;;
21488;SDS011;10906;45.194;5.684;2023-07-16T06:12:31;3.97;;;2.08;;
21488;SDS011;10906;45.194;5.684;2023-07-16T06:15:16;2.70;;;1.45;;
21488;SDS011;10906;45.194;5.684;2023-07-16T06:18:01;2.40;;;1.70;;
21488;SDS011;10906;45.194;5.684;2023-07-16T06:20:45;2.97;;;1.60;;
21488;SDS011;10906;45.194;5.684;2023-07-16T06:23:30;2.50;;;1.77;;
21488;SDS011;10906;45.194;5.684;2023-07-16T06:26:15;2.08;;;1.80;;
21488;SDS011;10906;45.194;5.684;2023-07-16T06:28:59;4.28;;;1.90;;
21488;SDS011;10906;45.194;5.684;2023-07-16T06:31:53;4.80;;;1.70;;
21488;SDS011;10906;45.194;5.684;2023-07-16T06:34:42;2.45;;;1.50;;
21488;SDS011;10906;45.194;5.684;2023-07-16T06:37:26;2.00;;;1.60;;
21488;SDS011;10906;45.194;5.684;2023-07-16T06:40:11;2.63;;;1.90;;
21488;SDS011;10906;45.194;5.684;2023-07-16T06:42:56;3.25;;;1.77;;
21488;SDS011;10906;45.194;5.684;2023-07-16T06:45:40;2.20;;;1.60;;
21488;SDS011;10906;45.194;5.684;2023-07-16T06:48:25;2.47;;;1.60;;
21488;SDS011;10906;45.194;5.684;2023-07-16T06:51:10;2.17;;;1.60;;
21488;SDS011;10906;45.194;5.684;2023-07-16T06:53:54;3.00;;;2.20;;
21488;SDS011;10906;45.194;5.684;2023-07-16T06:56:39;3.72;;;2.10;;
21488;SDS011;10906;45.194;5.684;2023-07-16T06:59:23;3.28;;;2.03;;
21488;SDS011;10906;45.194;5.684;2023-07-16T07:02:08;2.15;;;1.80;;
21488;SDS011;10906;45.194;5.684;2023-07-16T07:04:53;2.97;;;2.00;;
21488;SDS011;10906;45.194;5.684;2023-07-16T07:07:39;4.32;;;1.95;;
21488;SDS011;10906;45.194;5.684;2023-07-16T07:10:23;3.22;;;1.92;;
21488;SDS011;10906;45.194;5.684;2023-07-16T07:13:08;6.35;;;2.40;;
21488;SDS011;10906;45.194;5.684;2023-07-16T07:15:52;6.18;;;2.15;;
21488;SDS011;10906;45.194;5.684;2023-07-16T07:18:37;2.00;;;1.55;;
21488;SDS011;10906;45.194;5.684;2023-07-16T07:21:22;2.08;;;1.60;;
21488;SDS011;10906;45.194;5.684;2023-07-16T07:24:06;4.22;;;1.70;;
21488;SDS011;10906;45.194;5.684;2023-07-16T07:26:51;3.90;;;2.00;;
21488;SDS011;10906;45.194;5.684;2023-07-16T07:29:36;2.33;;;1.52;;
21488;SDS011;10906;45.194;5.684;2023-07-16T07:32:21;2.35;;;1.65;;
21488;SDS011;10906;45.194;5.684;2023-07-16T07:35:05;2.92;;;2.03;;
21488;SDS011;10906;45.194;5.684;2023-07-16T07:37:50;2.22;;;1.83;;
21488;SDS011;10906;45.194;5.684;2023-07-16T07:40:35;5.50;;;1.95;;
21488;SDS011;10906;45.194;5.684;2023-07-16T07:43:19;2.17;;;1.67;;
21488;SDS011;10906;45.194;5.684;2023-07-16T07:46:04;2.80;;;1.75;;
21488;SDS011;10906;45.194;5.684;2023-07-16T07:48:49;4.03;;;1.70;;
21488;SDS011;10906;45.194;5.684;2023-07-16T07:51:34;4.72;;;1.83;;
21488;SDS011;10906;45.194;5.684;2023-07-16T07:54:18;4.80;;;1.83;;
21488;SDS011;10906;45.194;5.684;2023-07-16T07:57:06;2.75;;;2.08;;
21488;SDS011;10906;45.194;5.684;2023-07-16T07:59:50;1.75;;;1.63;;
21488;SDS011;10906;45.194;5.684;2023-07-16T08:02:40;2.85;;;1.90;;
21488;SDS011;10906;45.194;5.684;2023-07-16T08:05:25;2.50;;;1.98;;
21488;SDS011;10906;45.194;5.684;2023-07-16T08:08:10;3.17;;;2.13;;
21488;SDS011;10906;45.194;5.684;2023-07-16T08:10:54;2.88;;;1.98;;
21488;SDS011;10906;45.194;5.684;2023-07-16T08:13:39;2.38;;;1.60;;
21488;SDS011;10906;45.194;5.684;2023-07-16T08:16:23;3.40;;;1.80;;
21488;SDS011;10906;45.194;5.684;2023-07-16T08:19:08;2.35;;;1.67;;
21488;SDS011;10906;45.194;5.684;2023-07-16T08:21:53;5.82;;;1.70;;
21488;SDS011;10906;45.194;5.684;2023-07-16T08:24:38;2.33;;;1.90;;
21488;SDS011;10906;45.194;5.684;2023-07-16T08:27:22;3.03;;;1.80;;
21488;SDS011;10906;45.194;5.684;2023-07-16T08:30:07;3.63;;;2.95;;
21488;SDS011;10906;45.194;5.684;2023-07-16T08:32:52;6.20;;;2.15;;
21488;SDS011;10906;45.194;5.684;2023-07-16T08:35:36;4.88;;;2.15;;
21488;SDS011;10906;45.194;5.684;2023-07-16T08:38:21;3.45;;;2.22;;
21488;SDS011;10906;45.194;5.684;2023-07-16T08:41:05;4.15;;;1.95;;
21488;SDS011;10906;45.194;5.684;2023-07-16T08:43:50;3.47;;;1.85;;
21488;SDS011;10906;45.194;5.684;2023-07-16T08:46:34;3.25;;;2.30;;
21488;SDS011;10906;45.194;5.684;2023-07-16T08:49:19;2.33;;;2.00;;
21488;SDS011;10906;45.194;5.684;2023-07-16T08:52:06;2.65;;;2.00;;
21488;SDS011;10906;45.194;5.684;2023-07-16T08:54:51;2.65;;;2.00;;
21488;SDS011;10906;45.194;5.684;2023-07-16T08:57:36;3.08;;;2.05;;
21488;SDS011;10906;45.194;5.684;2023-07-16T09:00:21;3.83;;;2.05;;
21488;SDS011;10906;45.194;5.684;2023-07-16T09:03:15;2.28;;;1.92;;
21488;SDS011;10906;45.194;5.684;2023-07-16T09:06:01;3.25;;;1.90;;
21488;SDS011;10906;45.194;5.684;2023-07-16T09:08:46;4.32;;;2.40;;
21488;SDS011;10906;45.194;5.684;2023-07-16T09:11:31;3.00;;;1.83;;
21488;SDS011;10906;45.194;5.684;2023-07-16T09:14:16;2.13;;;1.92;;
21488;SDS011;10906;45.194;5.684;2023-07-16T09:17:04;2.92;;;2.10;;
21488;SDS011;10906;45.194;5.684;2023-07-16T09:19:49;4.03;;;2.17;;
21488;SDS011;10906;45.194;5.684;2023-07-16T09:22:34;3.03;;;1.80;;
21488;SDS011;10906;45.194;5.684;2023-07-16T09:25:19;3.10;;;1.75;;
21488;SDS011;10906;45.194;5.684;2023-07-16T09:28:03;2.22;;;1.70;;
21488;SDS011;10906;45.194;5.684;2023-07-16T09:30:48;3.17;;;2.03;;
21488;SDS011;10906;45.194;5.684;2023-07-16T09:33:34;2.88;;;1.85;;
21488;SDS011;10906;45.194;5.684;2023-07-16T09:36:25;3.17;;;2.22;;
21488;SDS011;10906;45.194;5.684;2023-07-16T09:39:10;2.25;;;1.90;;
21488;SDS011;10906;45.194;5.684;2023-07-16T09:41:55;3.38;;;1.88;;
21488;SDS011;10906;45.194;5.684;2023-07-16T09:44:40;2.00;;;1.80;;
21488;SDS011;10906;45.194;5.684;2023-07-16T09:47:25;4.60;;;1.90;;
21488;SDS011;10906;45.194;5.684;2023-07-16T09:50:10;2.60;;;1.92;;
21488;SDS011;10906;45.194;5.684;2023-07-16T09:52:55;1.88;;;1.70;;
21488;SDS011;10906;45.194;5.684;2023-07-16T09:55:40;2.85;;;2.17;;
21488;SDS011;10906;45.194;5.684;2023-07-16T09:58:25;2.67;;;1.92;;
21488;SDS011;10906;45.194;5.684;2023-07-16T10:01:11;3.13;;;2.38;;
21488;SDS011;10906;45.194;5.684;2023-07-16T10:03:56;2.55;;;2.35;;
21488;SDS011;10906;45.194;5.684;2023-07-16T10:06:54;2.30;;;2.10;;
21488;SDS011;10906;45.194;5.684;2023-07-16T10:12:34;2.30;;;2.10;;
21488;SDS011;10906;45.194;5.684;2023-07-16T10:15:24;3.63;;;2.40;;
21488;SDS011;10906;45.194;5.684;2023-07-16T10:18:11;4.75;;;2.10;;
21488;SDS011;10906;45.194;5.684;2023-07-16T10:20:59;4.50;;;2.15;;
21488;SDS011;10906;45.194;5.684;2023-07-16T10:23:58;3.50;;;1.95;;
21488;SDS011;10906;45.194;5.684;2023-07-16T10:26:43;3.88;;;2.03;;
21488;SDS011;10906;45.194;5.684;2023-07-16T10:29:28;2.17;;;1.70;;
21488;SDS011;10906;45.194;5.684;2023-07-16T10:32:13;5.18;;;2.08;;
21488;SDS011;10906;45.194;5.684;2023-07-16T10:34:57;2.08;;;1.75;;
21488;SDS011;10906;45.194;5.684;2023-07-16T10:37:42;2.17;;;1.95;;
21488;SDS011;10906;45.194;5.684;2023-07-16T10:40:26;4.53;;;2.00;;
21488;SDS011;10906;45.194;5.684;2023-07-16T10:43:11;4.45;;;2.40;;
21488;SDS011;10906;45.194;5.684;2023-07-16T10:45:56;4.55;;;2.08;;
21488;SDS011;10906;45.194;5.684;2023-07-16T10:48:45;6.28;;;2.67;;
21488;SDS011;10906;45.194;5.684;2023-07-16T10:51:30;3.53;;;2.40;;
21488;SDS011;10906;45.194;5.684;2023-07-16T10:54:15;6.82;;;2.10;;
21488;SDS011;10906;45.194;5.684;2023-07-16T10:57:00;2.65;;;1.95;;
21488;SDS011;10906;45.194;5.684;2023-07-16T10:59:45;2.75;;;1.80;;
21488;SDS011;10906;45.194;5.684;2023-07-16T11:02:30;2.88;;;2.20;;
21488;SDS011;10906;45.194;5.684;2023-07-16T11:05:14;4.07;;;2.30;;
21488;SDS011;10906;45.194;5.684;2023-07-16T11:07:59;5.03;;;2.10;;
21488;SDS011;10906;45.194;5.684;2023-07-16T11:10:44;5.60;;;2.33;;
21488;SDS011;10906;45.194;5.684;2023-07-16T11:13:29;3.75;;;2.20;;
21488;SDS011;10906;45.194;5.684;2023-07-16T11:16:15;4.50;;;1.92;;
21488;SDS011;10906;45.194;5.684;2023-07-16T11:19:00;5.03;;;2.30;;
21488;SDS011;10906;45.194;5.684;2023-07-16T11:21:49;3.25;;;2.10;;
21488;SDS011;10906;45.194;5.684;2023-07-16T11:24:43;5.63;;;2.50;;
21488;SDS011;10906;45.194;5.684;2023-07-16T11:27:33;4.10;;;2.40;;
21488;SDS011;10906;45.194;5.684;2023-07-16T11:30:21;3.42;;;2.10;;
21488;SDS011;10906;45.194;5.684;2023-07-16T11:33:11;4.45;;;2.50;;
21488;SDS011;10906;45.194;5.684;2023-07-16T11:35:56;4.78;;;2.17;;
21488;SDS011;10906;45.194;5.684;2023-07-16T11:38:41;3.22;;;2.30;;
21488;SDS011;10906;45.194;5.684;2023-07-16T11:41:25;4.72;;;2.40;;
21488;SDS011;10906;45.194;5.684;2023-07-16T11:44:10;4.40;;;2.38;;
21488;SDS011;10906;45.194;5.684;2023-07-16T11:46:54;3.38;;;2.35;;
21488;SDS011;10906;45.194;5.684;2023-07-16T11:49:42;6.53;;;2.50;;
21488;SDS011;10906;45.194;5.684;2023-07-16T11:52:27;4.72;;;2.63;;
21488;SDS011;10906;45.194;5.684;2023-07-16T11:55:13;5.78;;;2.40;;
21488;SDS011;10906;45.194;5.684;2023-07-16T11:57:58;5.03;;;2.25;;
21488;SDS011;10906;45.194;5.684;2023-07-16T12:00:43;3.45;;;2.08;;
21488;SDS011;10906;45.194;5.684;2023-07-16T12:03:28;3.95;;;2.42;;
21488;SDS011;10906;45.194;5.684;2023-07-16T12:06:12;7.75;;;2.35;;
21488;SDS011;10906;45.194;5.684;2023-07-16T12:08:57;4.57;;;2.75;;
21488;SDS011;10906;45.194;5.684;2023-07-16T12:11:42;6.35;;;2.13;;
21488;SDS011;10906;45.194;5.684;2023-07-16T12:14:27;8.27;;;3.00;;
21488;SDS011;10906;45.194;5.684;2023-07-16T12:17:11;3.88;;;3.13;;
21488;SDS011;10906;45.194;5.684;2023-07-16T12:19:56;9.82;;;2.80;;
21488;SDS011;10906;45.194;5.684;2023-07-16T12:22:40;6.55;;;3.20;;
21488;SDS011;10906;45.194;5.684;2023-07-16T12:25:25;5.25;;;3.22;;
21488;SDS011;10906;45.194;5.684;2023-07-16T12:28:09;6.43;;;2.53;;
21488;SDS011;10906;45.194;5.684;2023-07-16T12:30:56;6.50;;;2.67;;
21488;SDS011;10906;45.194;5.684;2023-07-16T12:33:40;6.38;;;2.40;;
21488;SDS011;10906;45.194;5.684;2023-07-16T12:36:25;3.47;;;2.10;;
21488;SDS011;10906;45.194;5.684;2023-07-16T12:39:09;6.47;;;2.45;;
21488;SDS011;10906;45.194;5.684;2023-07-16T12:41:54;3.50;;;2.13;;
21488;SDS011;10906;45.194;5.684;2023-07-16T12:44:39;5.57;;;2.20;;
21488;SDS011;10906;45.194;5.684;2023-07-16T12:47:23;4.00;;;2.20;;
21488;SDS011;10906;45.194;5.684;2023-07-16T12:50:08;3.70;;;2.53;;
21488;SDS011;10906;45.194;5.684;2023-07-16T12:52:53;6.60;;;2.58;;
21488;SDS011;10906;45.194;5.684;2023-07-16T12:55:38;5.55;;;2.40;;
21488;SDS011;10906;45.194;5.684;2023-07-16T12:58:22;3.75;;;2.28;;
21488;SDS011;10906;45.194;5.684;2023-07-16T13:01:07;4.97;;;2.53;;
21488;SDS011;10906;45.194;5.684;2023-07-16T13:03:51;6.78;;;2.65;;
21488;SDS011;10906;45.194;5.684;2023-07-16T13:06:36;4.75;;;2.53;;
21488;SDS011;10906;45.194;5.684;2023-07-16T13:09:20;5.40;;;2.40;;
21488;SDS011;10906;45.194;5.684;2023-07-16T13:12:06;6.30;;;2.58;;
21488;SDS011;10906;45.194;5.684;2023-07-16T13:14:51;8.05;;;2.80;;
21488;SDS011;10906;45.194;5.684;2023-07-16T13:17:35;3.53;;;2.30;;
21488;SDS011;10906;45.194;5.684;2023-07-16T13:20:20;6.22;;;2.40;;
21488;SDS011;10906;45.194;5.684;2023-07-16T13:23:05;7.45;;;2.20;;
21488;SDS011;10906;45.194;5.684;2023-07-16T13:25:52;4.95;;;2.60;;
21488;SDS011;10906;45.194;5.684;2023-07-16T13:28:37;7.57;;;2.38;;
21488;SDS011;10906;45.194;5.684;2023-07-16T13:31:21;3.88;;;2.10;;
21488;SDS011;10906;45.194;5.684;2023-07-16T13:34:06;4.82;;;2.35;;
21488;SDS011;10906;45.194;5.684;2023-07-16T13:36:50;6.88;;;3.03;;
21488;SDS011;10906;45.194;5.684;2023-07-16T13:39:35;7.25;;;2.78;;
21488;SDS011;10906;45.194;5.684;2023-07-16T13:42:20;4.13;;;2.50;;
21488;SDS011;10906;45.194;5.684;2023-07-16T13:45:04;5.55;;;2.70;;
21488;SDS011;10906;45.194;5.684;2023-07-16T13:47:49;5.13;;;2.67;;
21488;SDS011;10906;45.194;5.684;2023-07-16T13:50:37;7.30;;;2.70;;
21488;SDS011;10906;45.194;5.684;2023-07-16T13:53:22;5.43;;;2.42;;
21488;SDS011;10906;45.194;5.684;2023-07-16T13:56:06;6.47;;;2.33;;
21488;SDS011;10906;45.194;5.684;2023-07-16T13:58:52;6.25;;;2.60;;
21488;SDS011;10906;45.194;5.684;2023-07-16T14:01:38;6.18;;;3.00;;
21488;SDS011;10906;45.194;5.684;2023-07-16T14:04:23;5.35;;;2.00;;
21488;SDS011;10906;45.194;5.684;2023-07-16T14:07:07;6.53;;;2.20;;
21488;SDS011;10906;45.194;5.684;2023-07-16T14:09:52;4.13;;;2.53;;
21488;SDS011;10906;45.194;5.684;2023-07-16T14:12:37;6.00;;;2.30;;
21488;SDS011;10906;45.194;5.684;2023-07-16T14:15:21;4.50;;;2.63;;
21488;SDS011;10906;45.194;5.684;2023-07-16T14:18:07;4.18;;;2.50;;
21488;SDS011;10906;45.194;5.684;2023-07-16T14:20:51;4.55;;;2.33;;
21488;SDS011;10906;45.194;5.684;2023-07-16T14:23:35;4.50;;;2.72;;
21488;SDS011;10906;45.194;5.684;2023-07-16T14:26:20;6.85;;;2.70;;
21488;SDS011;10906;45.194;5.684;2023-07-16T14:29:04;5.32;;;2.50;;
21488;SDS011;10906;45.194;5.684;2023-07-16T14:31:49;3.50;;;2.67;;
21488;SDS011;10906;45.194;5.684;2023-07-16T14:34:33;3.80;;;2.50;;
21488;SDS011;10906;45.194;5.684;2023-07-16T14:37:18;4.40;;;2.60;;
21488;SDS011;10906;45.194;5.684;2023-07-16T14:40:02;3.60;;;2.40;;
21488;SDS011;10906;45.194;5.684;2023-07-16T14:42:51;4.57;;;2.45;;
21488;SDS011;10906;45.194;5.684;2023-07-16T14:45:35;4.45;;;2.30;;
21488;SDS011;10906;45.194;5.684;2023-07-16T14:48:20;3.95;;;2.45;;
21488;SDS011;10906;45.194;5.684;2023-07-16T14:51:06;7.45;;;2.97;;
21488;SDS011;10906;45.194;5.684;2023-07-16T14:53:50;10.48;;;2.15;;
21488;SDS011;10906;45.194;5.684;2023-07-16T14:56:39;5.13;;;2.58;;
21488;SDS011;10906;45.194;5.684;2023-07-16T14:59:23;6.75;;;1.95;;
21488;SDS011;10906;45.194;5.684;2023-07-16T15:02:07;7.85;;;2.75;;
21488;SDS011;10906;45.194;5.684;2023-07-16T15:04:52;4.60;;;2.63;;
21488;SDS011;10906;45.194;5.684;2023-07-16T15:07:36;6.20;;;2.30;;
21488;SDS011;10906;45.194;5.684;2023-07-16T15:10:21;5.70;;;2.53;;
21488;SDS011;10906;45.194;5.684;2023-07-16T15:13:05;6.15;;;2.78;;
21488;SDS011;10906;45.194;5.684;2023-07-16T15:15:49;6.20;;;2.40;;
21488;SDS011;10906;45.194;5.684;2023-07-16T15:18:34;6.60;;;2.30;;
21488;SDS011;10906;45.194;5.684;2023-07-16T15:21:18;9.43;;;2.70;;
21488;SDS011;10906;45.194;5.684;2023-07-16T15:24:03;5.35;;;2.70;;
21488;SDS011;10906;45.194;5.684;2023-07-16T15:26:49;4.65;;;2.25;;
21488;SDS011;10906;45.194;5.684;2023-07-16T15:29:33;8.23;;;2.63;;
21488;SDS011;10906;45.194;5.684;2023-07-16T15:32:18;6.82;;;2.60;;
21488;SDS011;10906;45.194;5.684;2023-07-16T15:35:02;7.57;;;2.83;;
21488;SDS011;10906;45.194;5.684;2023-07-16T15:37:47;3.75;;;2.33;;
21488;SDS011;10906;45.194;5.684;2023-07-16T15:40:32;4.78;;;2.28;;
21488;SDS011;10906;45.194;5.684;2023-07-16T15:43:22;7.63;;;2.13;;
21488;SDS011;10906;45.194;5.684;2023-07-16T15:46:21;6.85;;;2.47;;
21488;SDS011;10906;45.194;5.684;2023-07-16T15:49:12;4.40;;;2.28;;
21488;SDS011;10906;45.194;5.684;2023-07-16T15:52:04;7.40;;;2.58;;
21488;SDS011;10906;45.194;5.684;2023-07-16T15:54:48;5.00;;;2.20;;
21488;SDS011;10906;45.194;5.684;2023-07-16T15:58:04;6.47;;;2.40;;
21488;SDS011;10906;45.194;5.684;2023-07-16T16:01:11;5.43;;;2.85;;
21488;SDS011;10906;45.194;5.684;2023-07-16T16:20:18;6.00;;;2.45;;
21488;SDS011;10906;45.194;5.684;2023-07-16T16:23:02;6.07;;;2.72;;
21488;SDS011;10906;45.194;5.684;2023-07-16T16:26:16;4.75;;;2.75;;
21488;SDS011;10906;45.194;5.684;2023-07-16T16:29:00;4.80;;;2.50;;
21488;SDS011;10906;45.194;5.684;2023-07-16T16:31:52;6.00;;;2.67;;
21488;SDS011;10906;45.194;5.684;2023-07-16T16:35:09;4.82;;;2.75;;
21488;SDS011;10906;45.194;5.684;2023-07-16T16:38:10;6.03;;;2.28;;
21488;SDS011;10906;45.194;5.684;2023-07-16T16:41:28;5.18;;;2.30;;
21488;SDS011;10906;45.194;5.684;2023-07-16T16:44:49;6.43;;;2.90;;
21488;SDS011;10906;45.194;5.684;2023-07-16T16:51:24;4.95;;;2.65;;
21488;SDS011;10906;45.194;5.684;2023-07-16T18:36:20;6.15;;;2.85;;
21488;SDS011;10906;45.194;5.684;2023-07-16T19:40:39;8.80;;;3.10;;
21488;SDS011;10906;45.194;5.684;2023-07-16T19:43:49;9.27;;;2.90;;
